sensor_id;sensor_type;location;lat;lon;timestamp;P1;durP1;ratioP1;P2;durP2;ratioP2
21237;SDS011;10777;50.828;3.264;2022-08-19T00:01:10;28.05;;;17.52;;
21237;SDS011;10777;50.828;3.264;2022-08-19T00:03:36;29.17;;;18.38;;
21237;SDS011;10777;50.828;3.264;2022-08-19T00:06:02;33.78;;;17.98;;
21237;SDS011;10777;50.828;3.264;2022-08-19T00:08:28;31.40;;;17.48;;
21237;SDS011;10777;50.828;3.264;2022-08-19T00:10:54;30.85;;;17.50;;
21237;SDS011;10777;50.828;3.264;2022-08-19T00:13:19;32.30;;;16.85;;
21237;SDS011;10777;50.828;3.264;2022-08-19T00:15:45;35.83;;;17.10;;
21237;SDS011;10777;50.828;3.264;2022-08-19T00:18:11;29.00;;;16.60;;
21237;SDS011;10777;50.828;3.264;2022-08-19T00:20:36;25.88;;;15.85;;
21237;SDS011;10777;50.828;3.264;2022-08-19T00:23:05;25.38;;;16.48;;
21237;SDS011;10777;50.828;3.264;2022-08-19T00:25:31;32.40;;;18.00;;
21237;SDS011;10777;50.828;3.264;2022-08-19T00:27:57;25.80;;;17.50;;
21237;SDS011;10777;50.828;3.264;2022-08-19T00:30:24;30.20;;;16.73;;
21237;SDS011;10777;50.828;3.264;2022-08-19T00:32:53;36.08;;;16.63;;
21237;SDS011;10777;50.828;3.264;2022-08-19T00:35:20;34.45;;;16.00;;
21237;SDS011;10777;50.828;3.264;2022-08-19T01:34:56;23.63;;;14.70;;
21237;SDS011;10777;50.828;3.264;2022-08-19T01:37:21;25.90;;;14.43;;
21237;SDS011;10777;50.828;3.264;2022-08-19T01:39:47;23.83;;;13.83;;
21237;SDS011;10777;50.828;3.264;2022-08-19T01:42:13;26.23;;;13.03;;
21237;SDS011;10777;50.828;3.264;2022-08-19T01:44:39;23.80;;;13.27;;
21237;SDS011;10777;50.828;3.264;2022-08-19T01:47:06;24.20;;;13.70;;
21237;SDS011;10777;50.828;3.264;2022-08-19T01:49:34;23.03;;;13.53;;
21237;SDS011;10777;50.828;3.264;2022-08-19T01:51:59;25.90;;;13.77;;
21237;SDS011;10777;50.828;3.264;2022-08-19T01:54:26;25.57;;;13.73;;
21237;SDS011;10777;50.828;3.264;2022-08-19T01:56:52;23.20;;;13.17;;
21237;SDS011;10777;50.828;3.264;2022-08-19T01:59:24;24.93;;;11.93;;
21237;SDS011;10777;50.828;3.264;2022-08-19T02:01:50;24.03;;;12.57;;
21237;SDS011;10777;50.828;3.264;2022-08-19T02:04:15;29.13;;;12.83;;
21237;SDS011;10777;50.828;3.264;2022-08-19T02:06:41;23.00;;;12.23;;
21237;SDS011;10777;50.828;3.264;2022-08-19T02:09:07;22.97;;;12.33;;
21237;SDS011;10777;50.828;3.264;2022-08-19T02:11:34;26.93;;;11.73;;
21237;SDS011;10777;50.828;3.264;2022-08-19T02:14:02;20.60;;;11.13;;
21237;SDS011;10777;50.828;3.264;2022-08-19T02:16:30;23.83;;;11.53;;
21237;SDS011;10777;50.828;3.264;2022-08-19T02:18:56;25.27;;;11.60;;
21237;SDS011;10777;50.828;3.264;2022-08-19T02:21:28;18.40;;;10.73;;
21237;SDS011;10777;50.828;3.264;2022-08-19T02:34:22;22.00;;;10.43;;
21237;SDS011;10777;50.828;3.264;2022-08-19T02:36:50;19.03;;;9.77;;
21237;SDS011;10777;50.828;3.264;2022-08-19T02:39:16;20.17;;;10.20;;
21237;SDS011;10777;50.828;3.264;2022-08-19T02:41:42;21.37;;;9.80;;
21237;SDS011;10777;50.828;3.264;2022-08-19T02:44:07;21.45;;;10.98;;
21237;SDS011;10777;50.828;3.264;2022-08-19T02:46:33;19.67;;;9.63;;
21237;SDS011;10777;50.828;3.264;2022-08-19T02:49:03;22.93;;;9.57;;
21237;SDS011;10777;50.828;3.264;2022-08-19T02:51:32;17.10;;;8.80;;
21237;SDS011;10777;50.828;3.264;2022-08-19T02:54:00;20.90;;;9.40;;
21237;SDS011;10777;50.828;3.264;2022-08-19T02:56:26;16.60;;;9.57;;
21237;SDS011;10777;50.828;3.264;2022-08-19T02:58:54;18.43;;;8.93;;
21237;SDS011;10777;50.828;3.264;2022-08-19T03:01:21;19.30;;;8.60;;
21237;SDS011;10777;50.828;3.264;2022-08-19T03:03:48;22.93;;;8.63;;
21237;SDS011;10777;50.828;3.264;2022-08-19T03:06:16;16.00;;;8.10;;
21237;SDS011;10777;50.828;3.264;2022-08-19T03:08:43;18.80;;;9.57;;
21237;SDS011;10777;50.828;3.264;2022-08-19T03:11:13;21.20;;;9.47;;
21237;SDS011;10777;50.828;3.264;2022-08-19T03:13:41;18.03;;;8.97;;
21237;SDS011;10777;50.828;3.264;2022-08-19T03:16:08;19.63;;;8.63;;
21237;SDS011;10777;50.828;3.264;2022-08-19T03:18:34;18.47;;;8.27;;
21237;SDS011;10777;50.828;3.264;2022-08-19T03:21:00;21.23;;;8.50;;
21237;SDS011;10777;50.828;3.264;2022-08-19T03:23:25;15.77;;;8.40;;
21237;SDS011;10777;50.828;3.264;2022-08-19T03:25:52;19.60;;;7.23;;
21237;SDS011;10777;50.828;3.264;2022-08-19T03:28:19;21.20;;;8.53;;
21237;SDS011;10777;50.828;3.264;2022-08-19T03:31:02;17.53;;;7.77;;
21237;SDS011;10777;50.828;3.264;2022-08-19T03:33:31;15.57;;;7.27;;
21237;SDS011;10777;50.828;3.264;2022-08-19T03:38:38;15.53;;;7.20;;
21237;SDS011;10777;50.828;3.264;2022-08-19T03:41:07;17.43;;;8.03;;
21237;SDS011;10777;50.828;3.264;2022-08-19T03:43:35;14.87;;;7.27;;
21237;SDS011;10777;50.828;3.264;2022-08-19T03:46:04;15.88;;;6.53;;
21237;SDS011;10777;50.828;3.264;2022-08-19T03:48:34;13.57;;;7.40;;
21237;SDS011;10777;50.828;3.264;2022-08-19T03:51:01;16.33;;;6.93;;
21237;SDS011;10777;50.828;3.264;2022-08-19T03:53:28;20.80;;;8.47;;
21237;SDS011;10777;50.828;3.264;2022-08-19T03:55:56;19.97;;;8.07;;
21237;SDS011;10777;50.828;3.264;2022-08-19T03:58:24;16.80;;;7.80;;
21237;SDS011;10777;50.828;3.264;2022-08-19T04:00:52;18.77;;;7.80;;
21237;SDS011;10777;50.828;3.264;2022-08-19T04:03:18;24.70;;;8.63;;
21237;SDS011;10777;50.828;3.264;2022-08-19T04:05:44;16.02;;;7.68;;
21237;SDS011;10777;50.828;3.264;2022-08-19T04:08:11;19.30;;;8.90;;
21237;SDS011;10777;50.828;3.264;2022-08-19T04:10:37;20.07;;;9.20;;
21237;SDS011;10777;50.828;3.264;2022-08-19T04:13:05;19.80;;;8.73;;
21237;SDS011;10777;50.828;3.264;2022-08-19T04:15:32;25.02;;;9.27;;
21237;SDS011;10777;50.828;3.264;2022-08-19T04:18:04;21.63;;;8.52;;
21237;SDS011;10777;50.828;3.264;2022-08-19T04:20:32;19.52;;;8.57;;
21237;SDS011;10777;50.828;3.264;2022-08-19T04:23:03;21.83;;;9.35;;
21237;SDS011;10777;50.828;3.264;2022-08-19T04:25:34;20.92;;;9.63;;
21237;SDS011;10777;50.828;3.264;2022-08-19T04:28:02;24.88;;;9.95;;
21237;SDS011;10777;50.828;3.264;2022-08-19T04:30:28;18.52;;;9.63;;
21237;SDS011;10777;50.828;3.264;2022-08-19T04:32:53;26.17;;;9.38;;
21237;SDS011;10777;50.828;3.264;2022-08-19T04:35:19;19.40;;;9.63;;
21237;SDS011;10777;50.828;3.264;2022-08-19T04:37:44;25.33;;;9.27;;
21237;SDS011;10777;50.828;3.264;2022-08-19T04:40:10;27.13;;;10.65;;
21237;SDS011;10777;50.828;3.264;2022-08-19T04:42:56;29.83;;;9.77;;
21237;SDS011;10777;50.828;3.264;2022-08-19T04:45:22;25.10;;;10.13;;
21237;SDS011;10777;50.828;3.264;2022-08-19T04:47:48;33.37;;;11.60;;
21237;SDS011;10777;50.828;3.264;2022-08-19T04:50:13;28.48;;;11.35;;
21237;SDS011;10777;50.828;3.264;2022-08-19T04:52:40;23.75;;;10.48;;
21237;SDS011;10777;50.828;3.264;2022-08-19T04:55:08;25.27;;;11.52;;
21237;SDS011;10777;50.828;3.264;2022-08-19T04:57:35;27.47;;;12.00;;
21237;SDS011;10777;50.828;3.264;2022-08-19T05:00:05;23.65;;;11.93;;
21237;SDS011;10777;50.828;3.264;2022-08-19T05:02:32;30.30;;;11.43;;
21237;SDS011;10777;50.828;3.264;2022-08-19T05:04:58;31.13;;;12.10;;
21237;SDS011;10777;50.828;3.264;2022-08-19T05:07:26;22.63;;;11.27;;
21237;SDS011;10777;50.828;3.264;2022-08-19T05:25:10;22.67;;;11.77;;
21237;SDS011;10777;50.828;3.264;2022-08-19T05:27:38;37.35;;;13.27;;
21237;SDS011;10777;50.828;3.264;2022-08-19T05:30:06;24.83;;;11.52;;
21237;SDS011;10777;50.828;3.264;2022-08-19T05:32:32;22.83;;;11.50;;
21237;SDS011;10777;50.828;3.264;2022-08-19T05:34:58;26.02;;;12.02;;
21237;SDS011;10777;50.828;3.264;2022-08-19T05:37:23;20.80;;;11.13;;
21237;SDS011;10777;50.828;3.264;2022-08-19T05:39:51;22.88;;;11.02;;
21237;SDS011;10777;50.828;3.264;2022-08-19T05:42:19;24.50;;;11.80;;
21237;SDS011;10777;50.828;3.264;2022-08-19T05:44:47;24.65;;;11.65;;
21237;SDS011;10777;50.828;3.264;2022-08-19T05:47:14;17.67;;;11.30;;
21237;SDS011;10777;50.828;3.264;2022-08-19T05:49:41;28.75;;;11.05;;
21237;SDS011;10777;50.828;3.264;2022-08-19T05:52:09;20.02;;;10.52;;
21237;SDS011;10777;50.828;3.264;2022-08-19T05:54:37;21.52;;;11.00;;
21237;SDS011;10777;50.828;3.264;2022-08-19T05:57:06;18.90;;;10.35;;
21237;SDS011;10777;50.828;3.264;2022-08-19T05:59:32;20.08;;;10.95;;
21237;SDS011;10777;50.828;3.264;2022-08-19T06:02:00;20.67;;;10.15;;
21237;SDS011;10777;50.828;3.264;2022-08-19T06:04:26;22.63;;;10.43;;
21237;SDS011;10777;50.828;3.264;2022-08-19T06:06:53;16.75;;;9.57;;
21237;SDS011;10777;50.828;3.264;2022-08-19T06:09:19;28.60;;;11.23;;
21237;SDS011;10777;50.828;3.264;2022-08-19T06:11:47;20.58;;;9.75;;
21237;SDS011;10777;50.828;3.264;2022-08-19T06:14:19;14.18;;;8.27;;
21237;SDS011;10777;50.828;3.264;2022-08-19T06:16:47;14.85;;;7.68;;
21237;SDS011;10777;50.828;3.264;2022-08-19T06:19:15;15.63;;;7.50;;
21237;SDS011;10777;50.828;3.264;2022-08-19T06:21:43;19.25;;;7.85;;
21237;SDS011;10777;50.828;3.264;2022-08-19T06:24:12;11.93;;;7.78;;
21237;SDS011;10777;50.828;3.264;2022-08-19T06:26:41;19.27;;;8.02;;
21237;SDS011;10777;50.828;3.264;2022-08-19T06:29:09;14.95;;;8.00;;
21237;SDS011;10777;50.828;3.264;2022-08-19T06:31:36;14.32;;;7.80;;
21237;SDS011;10777;50.828;3.264;2022-08-19T06:34:05;13.23;;;7.95;;
21237;SDS011;10777;50.828;3.264;2022-08-19T06:36:34;14.07;;;7.50;;
21237;SDS011;10777;50.828;3.264;2022-08-19T06:39:04;12.20;;;8.13;;
21237;SDS011;10777;50.828;3.264;2022-08-19T06:41:34;22.45;;;8.13;;
21237;SDS011;10777;50.828;3.264;2022-08-19T06:44:03;15.30;;;6.97;;
21237;SDS011;10777;50.828;3.264;2022-08-19T06:46:29;13.27;;;7.60;;
21237;SDS011;10777;50.828;3.264;2022-08-19T06:48:55;14.85;;;7.25;;
21237;SDS011;10777;50.828;3.264;2022-08-19T06:51:22;18.58;;;7.80;;
21237;SDS011;10777;50.828;3.264;2022-08-19T06:53:49;14.45;;;6.93;;
21237;SDS011;10777;50.828;3.264;2022-08-19T06:56:17;10.73;;;6.60;;
21237;SDS011;10777;50.828;3.264;2022-08-19T06:58:46;11.32;;;7.07;;
21237;SDS011;10777;50.828;3.264;2022-08-19T07:01:16;23.02;;;7.78;;
21237;SDS011;10777;50.828;3.264;2022-08-19T07:03:42;13.07;;;6.00;;
21237;SDS011;10777;50.828;3.264;2022-08-19T07:06:09;10.90;;;6.28;;
21237;SDS011;10777;50.828;3.264;2022-08-19T07:08:37;14.00;;;6.38;;
21237;SDS011;10777;50.828;3.264;2022-08-19T07:11:06;18.05;;;5.93;;
21237;SDS011;10777;50.828;3.264;2022-08-19T07:13:33;15.98;;;6.47;;
21237;SDS011;10777;50.828;3.264;2022-08-19T07:16:10;13.38;;;6.75;;
21237;SDS011;10777;50.828;3.264;2022-08-19T07:18:38;12.50;;;6.05;;
21237;SDS011;10777;50.828;3.264;2022-08-19T07:21:05;10.15;;;5.63;;
21237;SDS011;10777;50.828;3.264;2022-08-19T07:23:34;14.98;;;5.90;;
21237;SDS011;10777;50.828;3.264;2022-08-19T07:26:05;18.65;;;6.22;;
21237;SDS011;10777;50.828;3.264;2022-08-19T07:28:33;10.43;;;6.10;;
21237;SDS011;10777;50.828;3.264;2022-08-19T07:30:59;17.33;;;6.75;;
21237;SDS011;10777;50.828;3.264;2022-08-19T07:33:27;16.75;;;5.60;;
21237;SDS011;10777;50.828;3.264;2022-08-19T07:35:55;12.27;;;6.53;;
21237;SDS011;10777;50.828;3.264;2022-08-19T07:38:20;10.88;;;6.30;;
21237;SDS011;10777;50.828;3.264;2022-08-19T07:40:47;10.60;;;5.30;;
21237;SDS011;10777;50.828;3.264;2022-08-19T07:43:14;10.38;;;5.22;;
21237;SDS011;10777;50.828;3.264;2022-08-19T07:45:41;10.65;;;5.40;;
21237;SDS011;10777;50.828;3.264;2022-08-19T07:48:07;16.98;;;5.40;;
21237;SDS011;10777;50.828;3.264;2022-08-19T07:50:33;11.77;;;5.07;;
21237;SDS011;10777;50.828;3.264;2022-08-19T07:52:59;13.00;;;4.95;;
21237;SDS011;10777;50.828;3.264;2022-08-19T07:55:25;7.05;;;4.53;;
21237;SDS011;10777;50.828;3.264;2022-08-19T07:57:51;7.55;;;4.15;;
21237;SDS011;10777;50.828;3.264;2022-08-19T08:00:18;8.48;;;4.85;;
21237;SDS011;10777;50.828;3.264;2022-08-19T08:02:44;9.30;;;4.18;;
21237;SDS011;10777;50.828;3.264;2022-08-19T08:05:10;10.00;;;4.70;;
21237;SDS011;10777;50.828;3.264;2022-08-19T08:07:56;7.63;;;4.30;;
21237;SDS011;10777;50.828;3.264;2022-08-19T08:10:42;9.32;;;3.88;;
21237;SDS011;10777;50.828;3.264;2022-08-19T08:13:07;9.30;;;3.80;;
21237;SDS011;10777;50.828;3.264;2022-08-19T08:15:33;9.88;;;5.68;;
21237;SDS011;10777;50.828;3.264;2022-08-19T08:17:59;5.97;;;3.60;;
21237;SDS011;10777;50.828;3.264;2022-08-19T08:20:25;10.27;;;3.22;;
21237;SDS011;10777;50.828;3.264;2022-08-19T08:22:51;6.50;;;3.85;;
21237;SDS011;10777;50.828;3.264;2022-08-19T08:25:37;7.70;;;3.28;;
21237;SDS011;10777;50.828;3.264;2022-08-19T08:28:03;6.72;;;2.67;;
21237;SDS011;10777;50.828;3.264;2022-08-19T08:30:30;8.82;;;3.33;;
21237;SDS011;10777;50.828;3.264;2022-08-19T08:32:57;3.78;;;2.63;;
21237;SDS011;10777;50.828;3.264;2022-08-19T08:35:23;4.85;;;2.88;;
21237;SDS011;10777;50.828;3.264;2022-08-19T08:37:51;5.40;;;2.70;;
21237;SDS011;10777;50.828;3.264;2022-08-19T08:43:21;8.75;;;3.22;;
21237;SDS011;10777;50.828;3.264;2022-08-19T08:45:55;7.75;;;3.10;;
21237;SDS011;10777;50.828;3.264;2022-08-19T08:48:30;5.75;;;3.17;;
21237;SDS011;10777;50.828;3.264;2022-08-19T08:51:12;3.92;;;2.63;;
21237;SDS011;10777;50.828;3.264;2022-08-19T08:53:47;7.57;;;3.10;;
21237;SDS011;10777;50.828;3.264;2022-08-19T08:56:15;4.05;;;2.40;;
21237;SDS011;10777;50.828;3.264;2022-08-19T08:58:46;7.53;;;3.25;;
21237;SDS011;10777;50.828;3.264;2022-08-19T09:01:19;8.30;;;2.70;;
21237;SDS011;10777;50.828;3.264;2022-08-19T09:03:47;7.22;;;2.65;;
21237;SDS011;10777;50.828;3.264;2022-08-19T09:06:18;10.52;;;2.70;;
21237;SDS011;10777;50.828;3.264;2022-08-19T09:09:14;8.07;;;2.08;;
21237;SDS011;10777;50.828;3.264;2022-08-19T09:14:40;4.95;;;1.73;;
21237;SDS011;10777;50.828;3.264;2022-08-19T09:17:31;2.58;;;1.10;;
21237;SDS011;10777;50.828;3.264;2022-08-19T09:20:11;3.40;;;1.27;;
21237;SDS011;10777;50.828;3.264;2022-08-19T09:22:44;1.60;;;0.85;;
21237;SDS011;10777;50.828;3.264;2022-08-19T09:25:13;1.88;;;0.85;;
21237;SDS011;10777;50.828;3.264;2022-08-19T09:27:41;3.00;;;1.80;;
21237;SDS011;10777;50.828;3.264;2022-08-19T09:30:08;3.15;;;0.90;;
21237;SDS011;10777;50.828;3.264;2022-08-19T09:32:37;5.75;;;0.90;;
21237;SDS011;10777;50.828;3.264;2022-08-19T09:35:04;5.32;;;0.90;;
21237;SDS011;10777;50.828;3.264;2022-08-19T09:37:31;3.88;;;1.70;;
21237;SDS011;10777;50.828;3.264;2022-08-19T09:39:57;2.38;;;1.00;;
21237;SDS011;10777;50.828;3.264;2022-08-19T09:42:22;1.02;;;0.80;;
21237;SDS011;10777;50.828;3.264;2022-08-19T09:44:48;3.65;;;0.90;;
21237;SDS011;10777;50.828;3.264;2022-08-19T09:47:15;1.42;;;0.80;;
21237;SDS011;10777;50.828;3.264;2022-08-19T09:49:41;1.42;;;0.85;;
21237;SDS011;10777;50.828;3.264;2022-08-19T09:52:09;1.67;;;1.30;;
21237;SDS011;10777;50.828;3.264;2022-08-19T09:54:36;2.67;;;1.00;;
21237;SDS011;10777;50.828;3.264;2022-08-19T09:57:03;4.75;;;1.42;;
21237;SDS011;10777;50.828;3.264;2022-08-19T09:59:29;4.43;;;0.90;;
21237;SDS011;10777;50.828;3.264;2022-08-19T10:01:55;7.03;;;1.70;;
21237;SDS011;10777;50.828;3.264;2022-08-19T10:04:21;2.00;;;1.30;;
21237;SDS011;10777;50.828;3.264;2022-08-19T10:06:48;5.70;;;1.20;;
21237;SDS011;10777;50.828;3.264;2022-08-19T10:09:16;1.20;;;1.10;;
21237;SDS011;10777;50.828;3.264;2022-08-19T10:11:44;3.63;;;1.02;;
21237;SDS011;10777;50.828;3.264;2022-08-19T10:14:13;2.78;;;1.30;;
21237;SDS011;10777;50.828;3.264;2022-08-19T10:16:40;6.80;;;1.40;;
21237;SDS011;10777;50.828;3.264;2022-08-19T10:19:07;2.90;;;1.35;;
21237;SDS011;10777;50.828;3.264;2022-08-19T10:21:34;4.57;;;1.10;;
21237;SDS011;10777;50.828;3.264;2022-08-19T10:24:03;2.47;;;1.00;;
21237;SDS011;10777;50.828;3.264;2022-08-19T10:26:31;6.82;;;1.17;;
21237;SDS011;10777;50.828;3.264;2022-08-19T10:29:02;3.75;;;1.30;;
21237;SDS011;10777;50.828;3.264;2022-08-19T10:31:30;4.38;;;1.35;;
21237;SDS011;10777;50.828;3.264;2022-08-19T10:33:58;5.00;;;1.63;;
21237;SDS011;10777;50.828;3.264;2022-08-19T10:36:25;4.38;;;1.30;;
21237;SDS011;10777;50.828;3.264;2022-08-19T10:38:56;1.50;;;0.90;;
21237;SDS011;10777;50.828;3.264;2022-08-19T10:41:25;4.07;;;1.70;;
21237;SDS011;10777;50.828;3.264;2022-08-19T10:43:53;3.53;;;1.17;;
21237;SDS011;10777;50.828;3.264;2022-08-19T10:46:20;2.15;;;1.00;;
21237;SDS011;10777;50.828;3.264;2022-08-19T10:48:48;4.35;;;1.13;;
21237;SDS011;10777;50.828;3.264;2022-08-19T10:51:15;3.58;;;1.20;;
21237;SDS011;10777;50.828;3.264;2022-08-19T10:54:01;2.63;;;1.23;;
21237;SDS011;10777;50.828;3.264;2022-08-19T10:56:27;2.47;;;1.50;;
21237;SDS011;10777;50.828;3.264;2022-08-19T10:59:14;6.65;;;1.52;;
21237;SDS011;10777;50.828;3.264;2022-08-19T11:01:43;3.08;;;1.42;;
21237;SDS011;10777;50.828;3.264;2022-08-19T11:04:09;5.85;;;1.50;;
21237;SDS011;10777;50.828;3.264;2022-08-19T11:06:38;1.25;;;0.80;;
21237;SDS011;10777;50.828;3.264;2022-08-19T11:09:06;2.25;;;1.13;;
21237;SDS011;10777;50.828;3.264;2022-08-19T11:11:33;3.17;;;0.88;;
21237;SDS011;10777;50.828;3.264;2022-08-19T11:14:07;1.45;;;0.88;;
21237;SDS011;10777;50.828;3.264;2022-08-19T11:16:35;9.68;;;4.95;;
21237;SDS011;10777;50.828;3.264;2022-08-19T11:19:03;2.47;;;1.20;;
21237;SDS011;10777;50.828;3.264;2022-08-19T11:21:30;2.28;;;1.00;;
21237;SDS011;10777;50.828;3.264;2022-08-19T11:23:59;2.00;;;0.80;;
21237;SDS011;10777;50.828;3.264;2022-08-19T11:26:28;2.80;;;1.30;;
21237;SDS011;10777;50.828;3.264;2022-08-19T11:28:55;2.60;;;1.50;;
21237;SDS011;10777;50.828;3.264;2022-08-19T11:31:25;3.30;;;2.20;;
21237;SDS011;10777;50.828;3.264;2022-08-19T11:33:53;3.38;;;1.90;;
21237;SDS011;10777;50.828;3.264;2022-08-19T11:36:21;4.45;;;1.00;;
21237;SDS011;10777;50.828;3.264;2022-08-19T11:38:47;2.70;;;1.20;;
21237;SDS011;10777;50.828;3.264;2022-08-19T11:41:14;4.32;;;1.52;;
21237;SDS011;10777;50.828;3.264;2022-08-19T11:43:42;4.50;;;1.77;;
21237;SDS011;10777;50.828;3.264;2022-08-19T11:46:10;4.10;;;1.80;;
21237;SDS011;10777;50.828;3.264;2022-08-19T11:48:38;3.90;;;1.88;;
21237;SDS011;10777;50.828;3.264;2022-08-19T11:51:05;5.05;;;1.40;;
21237;SDS011;10777;50.828;3.264;2022-08-19T11:53:33;3.60;;;1.98;;
21237;SDS011;10777;50.828;3.264;2022-08-19T11:56:00;7.05;;;1.45;;
21237;SDS011;10777;50.828;3.264;2022-08-19T11:58:26;4.60;;;1.60;;
21237;SDS011;10777;50.828;3.264;2022-08-19T12:00:54;3.33;;;1.45;;
21237;SDS011;10777;50.828;3.264;2022-08-19T12:03:20;8.43;;;1.40;;
21237;SDS011;10777;50.828;3.264;2022-08-19T12:05:46;9.80;;;1.70;;
21237;SDS011;10777;50.828;3.264;2022-08-19T12:08:12;4.57;;;1.17;;
21237;SDS011;10777;50.828;3.264;2022-08-19T12:10:39;3.45;;;1.02;;
21237;SDS011;10777;50.828;3.264;2022-08-19T12:13:06;2.42;;;1.02;;
21237;SDS011;10777;50.828;3.264;2022-08-19T12:15:37;3.45;;;1.40;;
21237;SDS011;10777;50.828;3.264;2022-08-19T12:18:05;7.10;;;1.70;;
21237;SDS011;10777;50.828;3.264;2022-08-19T12:20:34;3.38;;;1.17;;
21237;SDS011;10777;50.828;3.264;2022-08-19T12:23:01;2.63;;;1.35;;
21237;SDS011;10777;50.828;3.264;2022-08-19T12:25:27;10.35;;;1.35;;
21237;SDS011;10777;50.828;3.264;2022-08-19T12:27:53;2.83;;;1.25;;
21237;SDS011;10777;50.828;3.264;2022-08-19T12:30:20;3.95;;;1.35;;
21237;SDS011;10777;50.828;3.264;2022-08-19T12:32:46;4.38;;;2.10;;
21237;SDS011;10777;50.828;3.264;2022-08-19T12:35:11;4.13;;;1.25;;
21237;SDS011;10777;50.828;3.264;2022-08-19T12:37:38;6.30;;;2.47;;
21237;SDS011;10777;50.828;3.264;2022-08-19T12:40:09;3.53;;;1.38;;
21237;SDS011;10777;50.828;3.264;2022-08-19T12:42:37;5.50;;;1.67;;
21237;SDS011;10777;50.828;3.264;2022-08-19T12:45:06;4.85;;;2.22;;
21237;SDS011;10777;50.828;3.264;2022-08-19T12:47:32;6.20;;;2.20;;
21237;SDS011;10777;50.828;3.264;2022-08-19T12:49:58;5.97;;;1.67;;
21237;SDS011;10777;50.828;3.264;2022-08-19T12:52:24;3.05;;;1.35;;
21237;SDS011;10777;50.828;3.264;2022-08-19T12:54:52;6.78;;;2.80;;
21237;SDS011;10777;50.828;3.264;2022-08-19T12:57:19;5.35;;;2.00;;
21237;SDS011;10777;50.828;3.264;2022-08-19T12:59:45;6.68;;;2.13;;
21237;SDS011;10777;50.828;3.264;2022-08-19T13:02:11;6.25;;;1.92;;
21237;SDS011;10777;50.828;3.264;2022-08-19T13:04:37;11.35;;;2.25;;
21237;SDS011;10777;50.828;3.264;2022-08-19T13:07:05;4.15;;;2.20;;
21237;SDS011;10777;50.828;3.264;2022-08-19T13:09:33;6.28;;;2.30;;
21237;SDS011;10777;50.828;3.264;2022-08-19T13:11:59;6.65;;;2.10;;
21237;SDS011;10777;50.828;3.264;2022-08-19T13:14:28;9.27;;;1.63;;
21237;SDS011;10777;50.828;3.264;2022-08-19T13:16:55;8.18;;;1.73;;
21237;SDS011;10777;50.828;3.264;2022-08-19T13:19:22;7.60;;;1.85;;
21237;SDS011;10777;50.828;3.264;2022-08-19T13:21:49;7.55;;;1.70;;
21237;SDS011;10777;50.828;3.264;2022-08-19T13:24:16;6.30;;;1.63;;
21237;SDS011;10777;50.828;3.264;2022-08-19T13:26:42;4.50;;;1.20;;
21237;SDS011;10777;50.828;3.264;2022-08-19T13:29:08;4.75;;;1.30;;
21237;SDS011;10777;50.828;3.264;2022-08-19T13:31:55;3.08;;;0.90;;
21237;SDS011;10777;50.828;3.264;2022-08-19T13:34:40;2.28;;;1.15;;
21237;SDS011;10777;50.828;3.264;2022-08-19T13:37:06;8.07;;;1.00;;
21237;SDS011;10777;50.828;3.264;2022-08-19T13:39:32;6.80;;;1.60;;
21237;SDS011;10777;50.828;3.264;2022-08-19T13:41:59;5.22;;;1.52;;
21237;SDS011;10777;50.828;3.264;2022-08-19T13:44:27;4.78;;;1.10;;
21237;SDS011;10777;50.828;3.264;2022-08-19T13:46:55;1.95;;;0.82;;
21237;SDS011;10777;50.828;3.264;2022-08-19T13:49:31;9.32;;;1.30;;
21237;SDS011;10777;50.828;3.264;2022-08-19T13:51:58;2.35;;;0.90;;
21237;SDS011;10777;50.828;3.264;2022-08-19T13:54:24;7.70;;;1.35;;
21237;SDS011;10777;50.828;3.264;2022-08-19T13:56:51;5.22;;;1.10;;
21237;SDS011;10777;50.828;3.264;2022-08-19T13:59:17;1.15;;;0.75;;
21237;SDS011;10777;50.828;3.264;2022-08-19T14:01:44;3.97;;;0.70;;
21237;SDS011;10777;50.828;3.264;2022-08-19T14:04:10;1.15;;;0.70;;
21237;SDS011;10777;50.828;3.264;2022-08-19T14:06:36;2.17;;;1.10;;
21237;SDS011;10777;50.828;3.264;2022-08-19T14:09:02;1.35;;;0.80;;
21237;SDS011;10777;50.828;3.264;2022-08-19T14:15:05;5.22;;;0.90;;
21237;SDS011;10777;50.828;3.264;2022-08-19T14:17:33;5.38;;;1.75;;
21237;SDS011;10777;50.828;3.264;2022-08-19T14:20:01;0.90;;;0.40;;
21237;SDS011;10777;50.828;3.264;2022-08-19T14:22:32;3.70;;;0.70;;
21237;SDS011;10777;50.828;3.264;2022-08-19T14:24:59;2.03;;;0.40;;
21237;SDS011;10777;50.828;3.264;2022-08-19T14:27:25;1.25;;;0.60;;
21237;SDS011;10777;50.828;3.264;2022-08-19T14:29:51;1.67;;;0.70;;
21237;SDS011;10777;50.828;3.264;2022-08-19T14:32:18;2.15;;;0.55;;
21237;SDS011;10777;50.828;3.264;2022-08-19T14:34:44;8.27;;;0.77;;
21237;SDS011;10777;50.828;3.264;2022-08-19T14:37:11;7.32;;;0.88;;
21237;SDS011;10777;50.828;3.264;2022-08-19T14:39:39;9.50;;;0.77;;
21237;SDS011;10777;50.828;3.264;2022-08-19T14:42:07;1.65;;;0.82;;
21237;SDS011;10777;50.828;3.264;2022-08-19T14:44:34;2.05;;;0.90;;
21237;SDS011;10777;50.828;3.264;2022-08-19T14:47:00;3.53;;;0.63;;
21237;SDS011;10777;50.828;3.264;2022-08-19T14:49:26;3.08;;;1.08;;
21237;SDS011;10777;50.828;3.264;2022-08-19T14:51:52;1.55;;;0.98;;
21237;SDS011;10777;50.828;3.264;2022-08-19T14:54:18;3.97;;;1.00;;
21237;SDS011;10777;50.828;3.264;2022-08-19T14:56:44;2.85;;;0.73;;
21237;SDS011;10777;50.828;3.264;2022-08-19T14:59:10;1.92;;;0.90;;
21237;SDS011;10777;50.828;3.264;2022-08-19T15:01:36;3.08;;;0.82;;
21237;SDS011;10777;50.828;3.264;2022-08-19T15:04:01;1.83;;;0.90;;
21237;SDS011;10777;50.828;3.264;2022-08-19T15:06:31;1.25;;;0.55;;
21237;SDS011;10777;50.828;3.264;2022-08-19T15:08:58;2.22;;;0.70;;
21237;SDS011;10777;50.828;3.264;2022-08-19T15:11:26;2.55;;;0.85;;
21237;SDS011;10777;50.828;3.264;2022-08-19T15:13:53;2.97;;;1.20;;
21237;SDS011;10777;50.828;3.264;2022-08-19T15:16:21;4.57;;;1.30;;
21237;SDS011;10777;50.828;3.264;2022-08-19T15:18:48;4.90;;;0.95;;
21237;SDS011;10777;50.828;3.264;2022-08-19T15:21:17;3.58;;;1.10;;
21237;SDS011;10777;50.828;3.264;2022-08-19T15:23:44;2.35;;;0.77;;
21237;SDS011;10777;50.828;3.264;2022-08-19T15:26:10;3.70;;;1.10;;
21237;SDS011;10777;50.828;3.264;2022-08-19T15:28:37;4.38;;;0.90;;
21237;SDS011;10777;50.828;3.264;2022-08-19T15:31:04;5.82;;;1.30;;
21237;SDS011;10777;50.828;3.264;2022-08-19T15:33:31;2.58;;;0.90;;
21237;SDS011;10777;50.828;3.264;2022-08-19T15:36:00;5.82;;;1.10;;
21237;SDS011;10777;50.828;3.264;2022-08-19T15:38:26;6.22;;;1.17;;
21237;SDS011;10777;50.828;3.264;2022-08-19T15:40:52;3.85;;;1.20;;
21237;SDS011;10777;50.828;3.264;2022-08-19T15:43:19;4.55;;;1.42;;
21237;SDS011;10777;50.828;3.264;2022-08-19T15:45:46;3.63;;;1.10;;
21237;SDS011;10777;50.828;3.264;2022-08-19T15:48:12;3.10;;;1.30;;
21237;SDS011;10777;50.828;3.264;2022-08-19T15:50:38;5.45;;;1.10;;
21237;SDS011;10777;50.828;3.264;2022-08-19T15:53:06;2.65;;;1.08;;
21237;SDS011;10777;50.828;3.264;2022-08-19T15:55:36;2.08;;;1.00;;
21237;SDS011;10777;50.828;3.264;2022-08-19T15:58:08;3.15;;;0.80;;
21237;SDS011;10777;50.828;3.264;2022-08-19T16:00:57;4.72;;;0.90;;
21237;SDS011;10777;50.828;3.264;2022-08-19T16:03:44;2.88;;;1.25;;
21237;SDS011;10777;50.828;3.264;2022-08-19T16:06:29;3.53;;;1.08;;
21237;SDS011;10777;50.828;3.264;2022-08-19T16:09:00;2.40;;;1.10;;
21237;SDS011;10777;50.828;3.264;2022-08-19T16:11:28;2.20;;;0.93;;
21237;SDS011;10777;50.828;3.264;2022-08-19T16:13:57;3.33;;;1.00;;
21237;SDS011;10777;50.828;3.264;2022-08-19T16:16:25;3.53;;;1.10;;
21237;SDS011;10777;50.828;3.264;2022-08-19T16:18:54;3.10;;;0.80;;